Time;durP1;ratioP1;P1;durP2;ratioP2;P2;SDS_P1;SDS_P2;PMS_P1;PMS_P2;Temp;Humidity;BMP_temperature;BMP_pressure;BME280_temperature;BME280_humidity;BME280_pressure;Samples;Min_cycle;Max_cycle;Signal;HPM_P1;HPM_P2
2021/07/11 00:00:28;;;;;;;;;4.00;4.00;;;;;21.54;54.96;101130.25;5079812;27;45272;-51
2021/07/11 00:02:54;;;;;;;;;4.00;4.00;;;;;21.53;55.19;101133.91;5041111;27;45454;-51
2021/07/11 00:05:22;;;;;;;;;5.00;5.00;;;;;21.53;55.01;101128.50;5079448;27;48271;-50
2021/07/11 00:07:47;;;;;;;;;5.67;5.00;;;;;21.52;55.31;101129.47;5061320;27;45445;-48
2021/07/11 00:10:14;;;;;;;;;3.00;3.00;;;;;21.52;55.68;101122.25;5079599;27;45365;-51
2021/07/11 00:12:41;;;;;;;;;4.00;4.00;;;;;21.54;55.79;101122.16;5045024;27;45636;-51
2021/07/11 00:15:09;;;;;;;;;3.00;3.00;;;;;21.54;55.44;101122.16;5066926;27;47855;-47
2021/07/11 00:17:36;;;;;;;;;2.67;2.67;;;;;21.53;55.51;101125.81;5042684;27;45419;-49
2021/07/11 00:20:05;;;;;;;;;3.67;3.67;;;;;21.50;55.75;101129.56;5061531;28;45463;-49
2021/07/11 00:22:30;;;;;;;;;6.33;5.00;;;;;21.50;55.99;101129.56;5061570;27;45301;-49
2021/07/11 00:24:56;;;;;;;;;4.00;4.00;;;;;21.48;55.83;101127.94;5079095;27;47206;-51
2021/07/11 00:27:21;;;;;;;;;5.67;5.67;;;;;21.45;56.46;101110.06;5079497;27;45290;-52
2021/07/11 00:29:47;;;;;;;;;6.67;6.00;;;;;21.48;56.14;101117.13;5061205;28;45386;-50
2021/07/11 00:32:12;;;;;;;;;5.00;5.00;;;;;21.48;56.78;101115.31;5068285;27;45434;-50
2021/07/11 00:34:38;;;;;;;;;6.00;6.00;;;;;21.49;56.34;101113.47;5078340;27;45621;-50
2021/07/11 00:37:03;;;;;;;;;5.00;5.00;;;;;21.48;55.99;101109.91;5078647;27;45413;-52
2021/07/11 00:39:29;;;;;;;;;4.33;3.33;;;;;21.50;56.26;101112.50;5079084;27;45471;-51
2021/07/11 00:41:54;;;;;;;;;6.33;5.00;;;;;21.47;56.55;101110.88;5079315;27;45302;-50
2021/07/11 00:44:20;;;;;;;;;3.00;3.00;;;;;21.46;56.22;101114.50;5078871;27;46905;-49
2021/07/11 00:46:45;;;;;;;;;5.00;5.00;;;;;21.44;56.74;101109.19;5078016;27;45389;-52
2021/07/11 00:49:14;;;;;;;;;3.00;3.00;;;;;21.47;56.16;101109.97;5079341;27;45370;-49
2021/07/11 00:51:39;;;;;;;;;4.00;4.00;;;;;21.46;55.98;101109.09;5079458;27;45517;-50
2021/07/11 00:54:05;;;;;;;;;2.00;2.00;;;;;21.43;56.12;101109.28;5057351;28;46787;-49
2021/07/11 00:56:30;;;;;;;;;6.00;5.00;;;;;21.42;56.09;101102.16;5075129;27;45395;-47
2021/07/11 00:58:56;;;;;;;;;3.00;3.00;;;;;21.40;56.26;101099.56;5078934;27;45671;-50
2021/07/11 01:01:48;;;;;;;;;4.33;3.00;;;;;21.39;56.39;101096.94;5079040;27;45322;-52
2021/07/11 01:04:20;;;;;;;;;4.00;4.00;;;;;21.37;56.83;101093.47;5060328;28;47965;-50
2021/07/11 01:06:53;;;;;;;;;5.33;4.67;;;;;21.35;56.64;101093.56;5078381;27;45622;-50
2021/07/11 01:09:31;;;;;;;;;3.00;3.00;;;;;21.33;57.09;101083.81;5060682;28;46173;-48
2021/07/11 01:12:02;;;;;;;;;5.00;4.00;;;;;21.32;57.26;101095.56;5061048;28;45555;-51
2021/07/11 01:14:33;;;;;;;;;3.00;3.00;;;;;21.32;56.76;101082.94;5078386;27;48401;-49
2021/07/11 01:17:02;;;;;;;;;4.00;4.00;;;;;21.31;57.31;101081.19;5078588;27;45782;-51
2021/07/11 01:19:40;;;;;;;;;3.00;3.00;;;;;21.29;57.33;101080.44;5078288;27;45388;-50
2021/07/11 01:22:10;;;;;;;;;4.67;4.67;;;;;21.29;57.27;101079.56;5078534;27;45339;-51
2021/07/11 01:24:40;;;;;;;;;3.00;3.00;;;;;21.26;57.58;101074.34;5059771;28;46412;-52
2021/07/11 01:27:06;;;;;;;;;5.00;4.33;;;;;21.24;57.81;101074.44;5078315;28;46086;-50
2021/07/11 01:29:32;;;;;;;;;5.00;4.00;;;;;21.21;57.42;101065.63;5085374;27;45372;-51
2021/07/11 01:32:00;;;;;;;;;3.67;3.67;;;;;21.18;57.91;101072.06;5067707;28;45482;-49
2021/07/11 01:34:26;;;;;;;;;3.00;2.67;;;;;21.14;57.67;101075.94;5059940;27;47835;-50
2021/07/11 01:36:53;;;;;;;;;3.00;3.00;;;;;21.11;57.66;101073.44;5078099;28;45335;-51
2021/07/11 01:39:19;;;;;;;;;2.00;2.00;;;;;21.09;57.54;101078.06;5077597;27;45327;-47
2021/07/11 01:41:46;;;;;;;;;1.67;1.67;;;;;21.07;57.38;101072.72;5078430;27;45489;-49
2021/07/11 01:44:13;;;;;;;;;2.67;2.00;;;;;21.08;58.02;101070.88;5078149;27;45380;-50
2021/07/11 01:46:40;;;;;;;;;2.00;2.00;;;;;21.05;57.75;101063.84;5078161;27;45317;-49
2021/07/11 01:49:06;;;;;;;;;2.00;2.00;;;;;21.03;57.76;101059.50;5081684;27;45632;-50
2021/07/11 01:51:32;;;;;;;;;2.00;2.00;;;;;20.99;57.71;101057.97;5063988;27;45368;-48
2021/07/11 01:53:58;;;;;;;;;2.67;2.67;;;;;20.97;57.62;101057.19;5081362;27;47437;-51
2021/07/11 01:56:24;;;;;;;;;2.00;2.00;;;;;20.96;58.01;101055.41;5081799;27;45373;-50
2021/07/11 01:58:50;;;;;;;;;2.00;2.00;;;;;20.94;57.88;101057.34;5081325;27;45302;-53
2021/07/11 02:01:18;;;;;;;;;2.33;2.00;;;;;20.93;57.52;101063.72;5063648;27;45678;-51
2021/07/11 02:03:44;;;;;;;;;2.33;2.33;;;;;20.91;58.19;101063.81;5081222;27;47416;-50
2021/07/11 02:06:12;;;;;;;;;2.00;2.00;;;;;20.91;58.05;101065.63;5063337;27;45380;-51
2021/07/11 02:08:38;;;;;;;;;1.67;1.67;;;;;20.89;57.83;101059.47;5068580;27;45387;-50
2021/07/11 02:11:05;;;;;;;;;1.00;1.00;;;;;20.87;58.15;101062.25;5081536;27;45696;-49
2021/07/11 02:13:48;;;;;;;;;2.00;2.00;;;;;20.86;58.01;101057.81;5063322;28;45606;-50
2021/07/11 02:16:21;;;;;;;;;3.00;2.33;;;;;20.83;58.28;101055.28;5063098;27;45424;-48
2021/07/11 02:18:50;;;;;;;;;2.33;1.00;;;;;20.81;58.43;101055.38;5081388;27;45620;-52
2021/07/11 02:21:22;;;;;;;;;3.00;3.00;;;;;20.82;58.02;101051.72;5081383;27;45550;-52
2021/07/11 02:23:49;;;;;;;;;1.67;1.67;;;;;20.81;58.63;101049.13;5081705;27;47149;-50
2021/07/11 02:26:15;;;;;;;;;2.00;2.00;;;;;20.79;58.17;101048.34;5081094;27;45565;-50
2021/07/11 02:28:40;;;;;;;;;2.00;2.00;;;;;20.78;58.31;101049.31;5081323;27;45410;-51
2021/07/11 02:31:11;;;;;;;;;3.00;3.00;;;;;20.79;58.83;101048.34;5077126;27;45411;-51
2021/07/11 02:33:37;;;;;;;;;3.33;3.33;;;;;20.78;58.37;101055.56;5080909;27;45629;-49
2021/07/11 02:36:12;;;;;;;;;3.00;3.00;;;;;20.78;58.47;101052.00;5062759;28;45480;-47
2021/07/11 02:38:46;;;;;;;;;2.33;2.33;;;;;20.75;58.54;101053.06;5080391;27;45705;-49
2021/07/11 02:41:13;;;;;;;;;3.67;3.67;;;;;20.72;59.13;101055.94;5062987;28;45432;-50
2021/07/11 02:43:42;;;;;;;;;4.00;4.00;;;;;20.69;59.17;101060.63;5062589;27;45900;-48
2021/07/11 02:46:10;;;;;;;;;3.33;3.33;;;;;20.69;58.86;101061.50;5079782;27;45396;-51
2021/07/11 02:48:39;;;;;;;;;5.00;3.33;;;;;20.68;59.23;101064.28;5080381;27;45298;-51
2021/07/11 02:51:04;;;;;;;;;3.00;3.00;;;;;20.68;59.08;101062.44;5062810;28;45315;-52
2021/07/11 02:53:31;;;;;;;;;4.67;4.67;;;;;20.71;58.98;101070.38;5062366;27;47926;-47
2021/07/11 02:56:00;;;;;;;;;3.33;3.33;;;;;20.74;59.24;101067.50;5059568;28;45807;-52
2021/07/11 02:58:28;;;;;;;;;4.00;3.00;;;;;20.78;59.13;101074.44;5079236;27;45267;-48
2021/07/11 03:00:54;;;;;;;;;4.00;4.00;;;;;20.83;59.72;101066.06;5080818;27;45792;-51
2021/07/11 03:03:22;;;;;;;;;3.00;3.00;;;;;20.85;59.37;101064.19;5080722;27;47218;-49
2021/07/11 03:05:47;;;;;;;;;3.67;3.67;;;;;20.86;59.27;101064.09;5081295;27;45314;-51
2021/07/11 03:08:13;;;;;;;;;4.33;4.33;;;;;20.89;59.35;101064.84;5042566;28;45514;-51
2021/07/11 03:10:40;;;;;;;;;6.00;5.00;;;;;20.88;58.80;101061.28;5053692;28;45548;-48
2021/07/11 03:13:06;;;;;;;;;5.00;5.00;;;;;20.86;58.90;101058.69;5081265;27;47296;-47
2021/07/11 03:15:33;;;;;;;;;3.67;3.67;;;;;20.86;59.00;101065.91;5081377;27;45337;-49
2021/07/11 03:18:00;;;;;;;;;5.33;4.33;;;;;20.86;59.49;101063.22;5080638;27;45313;-49
2021/07/11 03:20:27;;;;;;;;;5.33;5.33;;;;;20.83;59.47;101066.97;5080613;27;45420;-47
2021/07/11 03:22:55;;;;;;;;;4.75;4.75;;;;;20.81;58.89;101071.56;5061760;28;47055;-48
2021/07/11 03:25:22;;;;;;;;;7.00;7.00;;;;;20.80;59.06;101079.75;5080401;27;45864;-50
2021/07/11 03:27:48;;;;;;;;;5.00;4.67;;;;;20.78;58.82;101076.28;5080985;27;45364;-51
2021/07/11 03:30:18;;;;;;;;;6.00;6.00;;;;;20.76;59.14;101086.28;5063029;28;45401;-47
2021/07/11 03:32:56;;;;;;;;;6.00;6.00;;;;;20.74;58.81;101090.91;5061735;28;46336;-51
2021/07/11 03:35:29;;;;;;;;;5.00;5.00;;;;;20.72;59.09;101088.31;5080247;27;45377;-51
2021/07/11 03:37:58;;;;;;;;;7.25;6.75;;;;;20.69;59.34;101083.06;5068425;27;45417;-51
2021/07/11 03:40:29;;;;;;;;;6.00;6.00;;;;;20.68;59.40;101077.75;5080006;27;45469;-51
2021/07/11 03:42:57;;;;;;;;;7.33;7.33;;;;;20.64;59.36;101082.47;5080103;27;46281;-49
2021/07/11 03:45:24;;;;;;;;;7.00;6.50;;;;;20.64;59.09;101089.69;5078041;27;45609;-51
2021/07/11 03:47:56;;;;;;;;;7.75;7.75;;;;;20.62;59.32;101095.19;5079930;27;45443;-50
2021/07/11 03:50:25;;;;;;;;;8.00;6.50;;;;;20.61;59.31;101100.66;5079601;27;45408;-49
2021/07/11 03:53:01;;;;;;;;;6.00;6.00;;;;;20.58;59.69;101101.69;5061208;28;46343;-50
2021/07/11 03:55:29;;;;;;;;;5.00;5.00;;;;;20.55;59.58;101108.13;5079621;27;45303;-50
2021/07/11 03:57:56;;;;;;;;;8.25;8.25;;;;;20.55;59.18;101104.56;5079817;27;45302;-48
2021/07/11 04:00:22;;;;;;;;;8.50;5.75;;;;;20.52;59.79;101110.13;5062045;28;45452;-47
2021/07/11 04:02:50;;;;;;;;;7.00;7.00;;;;;20.50;59.43;101098.56;5079433;27;46171;-48
2021/07/11 04:05:19;;;;;;;;;7.67;7.67;;;;;20.46;59.60;101095.19;5079521;27;45299;-51
2021/07/11 04:07:49;;;;;;;;;7.33;7.33;;;;;20.45;59.28;101095.25;5058501;28;45395;-49
2021/07/11 04:10:15;;;;;;;;;8.67;8.00;;;;;20.42;59.45;101096.31;5048274;28;45807;-50
2021/07/11 04:12:40;;;;;;;;;8.00;8.00;;;;;20.39;59.92;101095.59;5079153;27;47041;-49
2021/07/11 04:15:06;;;;;;;;;7.67;7.67;;;;;20.36;59.88;101104.72;5079775;27;45703;-51
2021/07/11 04:17:35;;;;;;;;;8.00;8.00;;;;;20.35;60.11;101099.41;5078741;27;45753;-51
2021/07/11 04:20:03;;;;;;;;;8.00;7.67;;;;;20.33;59.90;101107.59;5079937;27;45931;-46
2021/07/11 04:22:29;;;;;;;;;7.00;7.00;;;;;20.34;60.11;101111.16;5079383;27;47361;-50
2021/07/11 04:24:55;;;;;;;;;7.67;7.67;;;;;20.32;59.48;101111.22;5079086;27;45908;-49
2021/07/11 04:27:22;;;;;;;;;7.33;7.33;;;;;20.33;59.70;101101.31;5079599;27;45412;-49
2021/07/11 04:29:51;;;;;;;;;9.00;9.00;;;;;20.35;60.07;101102.97;5079602;27;45300;-48
2021/07/11 04:32:18;;;;;;;;;9.00;8.67;;;;;20.36;60.03;101104.72;5078654;27;47475;-49
2021/07/11 04:34:44;;;;;;;;;8.67;7.67;;;;;20.35;59.72;101094.91;5079091;27;45822;-50
2021/07/11 04:37:11;;;;;;;;;7.00;7.00;;;;;20.35;59.87;101094.03;5041557;28;45418;-52
2021/07/11 04:39:37;;;;;;;;;7.00;7.00;;;;;20.35;60.33;101094.91;5079374;27;45393;-51
2021/07/11 04:42:03;;;;;;;;;10.00;8.00;;;;;20.34;59.89;101106.63;5060707;28;47263;-48
2021/07/11 04:44:28;;;;;;;;;10.00;10.00;;;;;20.34;60.03;101103.06;5071673;28;45446;-49
2021/07/11 04:46:54;;;;;;;;;8.67;8.67;;;;;20.34;60.38;101103.94;5075898;27;45616;-50
2021/07/11 04:49:22;;;;;;;;;12.50;10.25;;;;;20.35;59.83;101115.59;5044603;28;45370;-50
2021/07/11 04:51:49;;;;;;;;;9.67;9.67;;;;;20.37;60.19;101110.97;5078790;27;47246;-48
2021/07/11 04:54:14;;;;;;;;;8.75;8.75;;;;;20.40;60.39;101113.50;5078983;27;45590;-47
2021/07/11 04:56:39;;;;;;;;;10.00;10.00;;;;;20.44;60.35;101115.09;5078756;27;45499;-51
2021/07/11 04:59:05;;;;;;;;;7.75;7.75;;;;;20.47;59.74;101120.31;5057575;28;45453;-49
2021/07/11 05:01:31;;;;;;;;;9.00;9.00;;;;;20.52;60.07;101123.63;5071716;27;47291;-48
2021/07/11 05:03:57;;;;;;;;;9.00;9.00;;;;;20.54;60.10;101117.19;5074547;28;45633;-48
2021/07/11 05:06:22;;;;;;;;;7.75;6.25;;;;;20.57;60.09;101121.53;5077783;28;45620;-47
2021/07/11 05:08:48;;;;;;;;;9.00;9.00;;;;;20.62;59.96;101121.28;5059911;28;45361;-49
2021/07/11 05:11:14;;;;;;;;;10.00;9.25;;;;;20.67;59.93;101127.28;5060479;28;47221;-48
2021/07/11 05:13:40;;;;;;;;;10.25;10.25;;;;;20.70;59.46;101129.78;5078931;28;45446;-47
2021/07/11 05:16:05;;;;;;;;;10.25;8.75;;;;;20.74;59.93;101116.06;5060445;28;45285;-47
2021/07/11 05:18:31;;;;;;;;;10.50;10.00;;;;;20.76;59.33;101108.72;5060614;28;45275;-47
2021/07/11 05:20:57;;;;;;;;;11.00;9.75;;;;;20.81;59.81;101113.84;5078817;28;47351;-49
2021/07/11 05:23:22;;;;;;;;;9.75;7.75;;;;;20.83;59.32;101114.63;5082032;28;45674;-47
2021/07/11 05:25:49;;;;;;;;;9.50;8.50;;;;;20.85;59.35;101116.31;5064633;28;45371;-48
2021/07/11 05:28:14;;;;;;;;;7.00;7.00;;;;;20.90;59.85;101115.16;5064280;28;45421;-51
2021/07/11 05:30:40;;;;;;;;;6.00;6.00;;;;;20.93;59.72;101117.66;5079038;27;45489;-50
2021/07/11 05:33:05;;;;;;;;;8.50;7.25;;;;;20.93;59.43;101121.22;5042683;28;45748;-50
2021/07/11 05:35:31;;;;;;;;;8.00;8.00;;;;;20.95;59.70;101126.53;5043773;28;45413;-48
2021/07/11 05:37:56;;;;;;;;;7.00;7.00;;;;;20.95;59.92;101129.25;5073954;28;45355;-50
2021/07/11 05:40:22;;;;;;;;;8.00;6.25;;;;;20.95;59.85;101132.81;5061631;28;46180;-51
2021/07/11 05:42:49;;;;;;;;;7.25;5.75;;;;;20.98;60.01;101137.19;5043318;28;45484;-51
2021/07/11 05:45:14;;;;;;;;;8.00;8.00;;;;;21.00;59.80;101135.25;5047934;28;45349;-50
2021/07/11 05:47:40;;;;;;;;;8.00;8.00;;;;;21.03;60.12;101132.38;5076545;27;45441;-48
2021/07/11 05:50:07;;;;;;;;;7.75;7.00;;;;;21.09;60.02;101129.31;5081506;27;48596;-50
2021/07/11 05:52:32;;;;;;;;;6.00;6.00;;;;;21.16;59.76;101123.47;5081603;27;45319;-50
2021/07/11 05:54:58;;;;;;;;;6.50;6.50;;;;;21.24;59.83;101120.31;5081374;27;45608;-52
2021/07/11 05:57:24;;;;;;;;;8.00;8.00;;;;;21.34;59.43;101121.53;5060364;28;45584;-52
2021/07/11 05:59:50;;;;;;;;;6.00;6.00;;;;;21.43;58.97;101112.84;5061567;28;48171;-49
2021/07/11 06:02:16;;;;;;;;;9.00;7.00;;;;;21.53;59.07;101117.72;5081731;27;45347;-45
2021/07/11 06:04:43;;;;;;;;;8.50;8.00;;;;;21.58;58.64;101113.75;5081471;27;45311;-47
2021/07/11 06:07:09;;;;;;;;;8.00;8.00;;;;;21.65;58.52;101116.97;5063654;27;45386;-48
2021/07/11 06:09:34;;;;;;;;;8.00;8.00;;;;;21.70;58.35;101121.09;5081082;27;47397;-52
2021/07/11 06:12:00;;;;;;;;;7.75;7.75;;;;;21.73;58.44;101125.47;5081695;27;45302;-47
2021/07/11 06:14:25;;;;;;;;;6.50;6.00;;;;;21.74;57.93;101129.91;5081439;27;45298;-48
2021/07/11 06:16:51;;;;;;;;;9.50;9.00;;;;;21.71;58.17;101120.13;5081291;27;45232;-49
2021/07/11 06:19:17;;;;;;;;;8.00;8.00;;;;;21.69;57.96;101123.91;5042718;28;46830;-46
2021/07/11 06:21:43;;;;;;;;;8.50;8.00;;;;;21.66;57.83;101124.97;5076646;27;45355;-48
2021/07/11 06:24:08;;;;;;;;;9.25;7.75;;;;;21.64;58.08;101126.91;5081203;27;45508;-47
2021/07/11 06:26:34;;;;;;;;;5.25;5.25;;;;;21.65;57.86;101130.47;5081382;27;45671;-49
2021/07/11 06:28:59;;;;;;;;;8.50;8.50;;;;;21.67;57.77;101140.22;5059720;28;48301;-50
2021/07/11 06:31:25;;;;;;;;;10.00;9.00;;;;;21.68;57.67;101128.44;5073871;27;45411;-52
2021/07/11 06:33:51;;;;;;;;;7.75;7.75;;;;;21.67;57.10;101132.09;5061914;28;45790;-52
2021/07/11 06:36:16;;;;;;;;;9.50;8.50;;;;;21.67;56.98;101131.25;5076804;27;45479;-50
2021/07/11 06:38:42;;;;;;;;;12.00;12.00;;;;;21.67;57.15;101139.34;5080302;27;48187;-50
2021/07/11 06:41:07;;;;;;;;;12.25;11.50;;;;;21.68;57.31;101130.28;5084018;27;45473;-51
2021/07/11 06:43:33;;;;;;;;;11.75;11.75;;;;;21.70;57.21;101133.75;5062983;28;45471;-51
2021/07/11 06:45:58;;;;;;;;;12.50;12.00;;;;;21.76;57.43;101132.50;5079794;27;45866;-47
2021/07/11 06:48:24;;;;;;;;;10.00;10.00;;;;;21.84;57.24;101133.75;5080974;27;48212;-52
2021/07/11 06:50:49;;;;;;;;;9.25;9.25;;;;;21.94;57.16;101118.72;5080320;27;45338;-51
2021/07/11 06:53:15;;;;;;;;;10.00;10.00;;;;;22.05;57.11;101131.56;5081120;27;45316;-52
2021/07/11 06:55:41;;;;;;;;;13.00;11.00;;;;;22.13;56.74;101128.41;5081054;27;45299;-50
2021/07/11 06:58:06;;;;;;;;;8.25;6.25;;;;;22.20;56.65;101125.22;5062273;28;47257;-52
2021/07/11 07:00:32;;;;;;;;;6.75;6.75;;;;;22.27;56.40;101117.59;5080376;27;46307;-50
2021/07/11 07:02:58;;;;;;;;;9.75;9.75;;;;;22.35;56.56;101117.94;5080165;27;45694;-51
2021/07/11 07:05:25;;;;;;;;;9.25;7.75;;;;;22.38;55.72;101117.78;5080718;27;45333;-50
2021/07/11 07:07:51;;;;;;;;;8.25;7.75;;;;;22.41;55.56;101122.09;5044864;27;47748;-51
2021/07/11 07:10:17;;;;;;;;;9.75;7.50;;;;;22.44;55.42;101120.06;5079729;27;45507;-52
2021/07/11 07:12:44;;;;;;;;;5.75;5.75;;;;;22.46;55.53;101117.25;5079853;27;45590;-50
2021/07/11 07:15:11;;;;;;;;;6.75;6.75;;;;;22.46;55.80;101114.56;5069359;27;45360;-51
2021/07/11 07:17:37;;;;;;;;;7.75;7.75;;;;;22.48;55.10;101123.44;5059820;27;46868;-49
2021/07/11 07:20:06;;;;;;;;;8.00;8.00;;;;;22.54;55.21;101125.75;5080253;27;45288;-50
2021/07/11 07:22:33;;;;;;;;;10.00;8.50;;;;;22.60;55.61;101128.91;5080133;27;45424;-50
2021/07/11 07:24:58;;;;;;;;;8.75;8.75;;;;;22.66;55.55;101133.06;5079722;27;45496;-50
2021/07/11 07:27:24;;;;;;;;;10.00;10.00;;;;;22.72;54.97;101131.78;5079434;27;45436;-52
2021/07/11 07:29:49;;;;;;;;;10.00;10.00;;;;;22.76;54.88;101134.22;5079686;27;45934;-49
2021/07/11 07:32:15;;;;;;;;;16.25;12.25;;;;;22.81;54.89;101129.34;5065242;28;45374;-50
2021/07/11 07:34:40;;;;;;;;;17.25;15.25;;;;;22.83;54.33;101131.97;5079660;27;45538;-51
2021/07/11 07:37:06;;;;;;;;;13.00;11.75;;;;;22.85;54.68;101132.75;5079843;27;47321;-51
2021/07/11 07:39:32;;;;;;;;;13.50;13.00;;;;;22.83;54.32;101138.25;5061196;27;45537;-47
2021/07/11 07:41:57;;;;;;;;;17.00;17.00;;;;;22.84;54.75;101141.84;5042026;28;45717;-48
2021/07/11 07:44:23;;;;;;;;;12.25;12.00;;;;;22.86;54.59;101145.31;5061794;28;45644;-48
2021/07/11 07:46:49;;;;;;;;;16.25;13.25;;;;;22.88;54.79;101136.13;5052153;28;46336;-51
2021/07/11 07:49:16;;;;;;;;;11.75;11.75;;;;;22.93;54.52;101143.06;5059275;28;45294;-49
2021/07/11 07:51:42;;;;;;;;;10.00;10.00;;;;;22.90;54.44;101138.75;5059239;28;45383;-50
2021/07/11 07:54:07;;;;;;;;;12.00;12.00;;;;;22.85;54.68;101140.84;5057760;28;45599;-51
2021/07/11 07:56:33;;;;;;;;;12.00;12.00;;;;;22.79;54.49;101139.41;5058771;28;46299;-49
2021/07/11 07:58:59;;;;;;;;;12.75;12.25;;;;;22.74;54.83;101144.28;5058705;28;45341;-51
2021/07/11 08:01:24;;;;;;;;;10.50;10.25;;;;;22.68;54.63;101138.38;5058671;27;45403;-48
2021/07/11 08:03:50;;;;;;;;;11.25;10.50;;;;;22.62;54.74;101134.25;5057434;28;45895;-49
2021/07/11 08:06:15;;;;;;;;;11.75;11.50;;;;;22.57;54.50;101137.22;5058491;27;47109;-47
2021/07/11 08:08:41;;;;;;;;;10.00;9.75;;;;;22.52;54.96;101141.22;5064622;28;45560;-53
2021/07/11 08:11:07;;;;;;;;;14.75;12.75;;;;;22.46;55.23;101141.59;5059216;27;45441;-52
2021/07/11 08:13:37;;;;;;;;;9.50;9.50;;;;;22.40;55.18;101142.88;5059113;28;45574;-50
2021/07/11 08:16:06;;;;;;;;;9.50;9.50;;;;;22.34;55.46;101143.25;5058960;28;47162;-51
2021/07/11 08:18:32;;;;;;;;;11.50;10.25;;;;;22.30;55.14;101144.44;5058311;28;45413;-49
2021/07/11 08:20:57;;;;;;;;;10.75;9.75;;;;;22.25;55.92;101142.03;5057202;28;45417;-48
2021/07/11 08:23:23;;;;;;;;;8.50;8.50;;;;;22.23;55.90;101135.84;5058433;28;45342;-51
2021/07/11 08:25:49;;;;;;;;;10.00;10.00;;;;;22.23;55.69;101143.06;5057444;28;48165;-49
2021/07/11 08:28:14;;;;;;;;;10.75;9.75;;;;;22.24;55.84;101134.88;5057372;28;45719;-48
2021/07/11 08:30:41;;;;;;;;;10.00;10.00;;;;;22.27;55.77;101136.50;5056785;28;45299;-49
2021/07/11 08:33:06;;;;;;;;;8.25;8.25;;;;;22.29;55.50;101139.97;5058376;28;45579;-49
2021/07/11 08:35:32;;;;;;;;;7.00;7.00;;;;;22.29;55.76;101129.16;5058094;28;48290;-48
2021/07/11 08:37:57;;;;;;;;;8.25;8.25;;;;;22.27;55.22;101131.09;5053078;28;45983;-48
2021/07/11 08:40:23;;;;;;;;;9.50;9.50;;;;;22.23;55.68;101133.16;5052639;27;45416;-51
2021/07/11 08:42:53;;;;;;;;;7.33;7.00;;;;;22.22;55.25;101133.22;5063205;27;45787;-50
2021/07/11 08:45:19;;;;;;;;;6.67;6.67;;;;;22.20;55.62;101125.22;5059273;27;48022;-51
2021/07/11 08:47:45;;;;;;;;;5.00;5.00;;;;;22.17;55.20;101122.72;5077933;27;45411;-50
2021/07/11 08:50:13;;;;;;;;;8.00;8.00;;;;;22.16;55.90;101129.09;5078597;27;45680;-53
2021/07/11 08:52:40;;;;;;;;;7.50;7.50;;;;;22.21;55.39;101129.66;5060004;28;45478;-50
2021/07/11 08:55:22;;;;;;;;;8.00;6.75;;;;;22.28;55.66;101132.84;5077990;27;45396;-48
2021/07/11 08:57:51;;;;;;;;;6.00;5.00;;;;;22.33;55.09;101125.28;5039258;28;45455;-50
2021/07/11 09:00:18;;;;;;;;;5.00;4.00;;;;;22.38;54.82;101127.72;5058377;27;45361;-49
2021/07/11 09:02:44;;;;;;;;;5.00;5.00;;;;;22.43;55.00;101120.16;5077935;27;45341;-50
2021/07/11 09:05:27;;;;;;;;;4.67;4.67;;;;;22.52;54.74;101125.00;5059705;28;45690;-52
2021/07/11 09:08:04;;;;;;;;;5.67;5.67;;;;;22.61;54.37;101122.56;5077966;27;45318;-51
2021/07/11 09:11:00;;;;;;;;;5.00;5.00;;;;;22.69;54.92;101132.84;5077974;27;45601;-49
2021/07/11 09:13:33;;;;;;;;;6.67;6.67;;;;;22.73;54.58;101136.22;5053640;28;45404;-47
2021/07/11 09:15:59;;;;;;;;;5.33;5.33;;;;;22.71;53.97;101130.06;5078024;27;48717;-51
2021/07/11 09:18:33;;;;;;;;;8.00;6.00;;;;;22.71;54.42;101125.50;5077752;28;45407;-47
2021/07/11 09:21:06;;;;;;;;;5.00;5.00;;;;;22.72;54.21;101132.66;5078188;27;45513;-48
2021/07/11 09:23:34;;;;;;;;;4.50;4.50;;;;;22.75;53.73;101134.31;5077985;28;45525;-50
2021/07/11 09:26:04;;;;;;;;;4.00;4.00;;;;;22.76;54.09;101126.09;5043071;28;45857;-49
2021/07/11 09:28:31;;;;;;;;;5.75;5.75;;;;;22.80;53.96;101129.44;5060015;28;45313;-52
2021/07/11 09:31:01;;;;;;;;;5.75;5.50;;;;;22.86;54.38;101134.47;5077300;27;45520;-46
2021/07/11 09:33:27;;;;;;;;;6.67;5.67;;;;;22.94;53.95;101128.56;5059816;28;45366;-48
2021/07/11 09:36:03;;;;;;;;;6.00;6.00;;;;;22.99;53.40;101127.28;5078024;27;48245;-48
2021/07/11 09:38:29;;;;;;;;;5.00;4.00;;;;;23.04;53.18;101127.84;5062892;28;45484;-51
2021/07/11 09:40:54;;;;;;;;;6.67;4.00;;;;;23.13;53.36;101123.66;5080850;27;45555;-49
2021/07/11 09:43:20;;;;;;;;;5.00;5.00;;;;;23.24;53.11;101123.78;5039826;28;45471;-53
2021/07/11 09:45:45;;;;;;;;;3.50;3.50;;;;;23.35;52.79;101123.03;5074269;27;48394;-46
2021/07/11 09:48:11;;;;;;;;;4.25;4.25;;;;;23.46;52.92;101126.75;5077581;28;45569;-48
2021/07/11 09:50:37;;;;;;;;;4.00;4.00;;;;;23.57;52.26;101131.44;5077515;28;45315;-48
2021/07/11 09:53:03;;;;;;;;;2.67;2.67;;;;;23.58;51.31;101122.38;5077938;27;45480;-51
2021/07/11 09:55:31;;;;;;;;;4.25;3.75;;;;;23.54;51.51;101114.53;5077220;27;47814;-53
2021/07/11 09:58:04;;;;;;;;;6.25;5.25;;;;;23.49;51.52;101121.13;5059273;28;45408;-51
2021/07/11 10:00:41;;;;;;;;;5.25;5.25;;;;;23.45;51.67;101122.31;5077573;27;45493;-47
2021/07/11 10:03:12;;;;;;;;;6.00;6.00;;;;;23.42;51.23;101125.25;5077867;27;45448;-52
2021/07/11 10:05:42;;;;;;;;;19.25;19.00;;;;;23.42;51.37;101117.13;5077756;28;45997;-52
2021/07/11 10:08:08;;;;;;;;;9.00;6.50;;;;;23.44;51.51;101117.00;5079835;27;45803;-50
2021/07/11 10:10:40;;;;;;;;;4.25;4.25;;;;;23.46;51.08;101118.63;5063165;28;45699;-50
2021/07/11 10:13:07;;;;;;;;;3.67;3.67;;;;;23.44;51.17;101108.88;5063353;28;45514;-46
2021/07/11 10:15:34;;;;;;;;;4.00;4.00;;;;;23.46;51.19;101113.22;5062344;28;45389;-48
2021/07/11 10:18:06;;;;;;;;;4.00;4.00;;;;;23.54;51.17;101107.28;5062545;28;45363;-49
2021/07/11 10:20:46;;;;;;;;;4.25;4.25;;;;;23.66;50.96;101100.16;5062783;28;45727;-52
2021/07/11 10:23:23;;;;;;;;;3.25;3.25;;;;;23.79;50.90;101106.47;5075161;27;45501;-47
2021/07/11 10:25:59;;;;;;;;;3.75;3.75;;;;;23.89;50.61;101102.13;5062180;27;46326;-52
2021/07/11 10:28:32;;;;;;;;;4.75;4.75;;;;;23.96;50.38;101097.13;5080774;27;45366;-50
2021/07/11 10:30:57;;;;;;;;;6.00;5.00;;;;;24.01;50.19;101093.13;5078937;27;45313;-49
2021/07/11 10:33:24;;;;;;;;;3.75;3.25;;;;;24.05;50.02;101097.31;5080689;27;45341;-49
2021/07/11 10:36:00;;;;;;;;;3.00;3.00;;;;;24.11;50.03;101100.56;5062765;27;46890;-51
2021/07/11 10:38:34;;;;;;;;;3.25;3.25;;;;;24.19;50.08;101099.03;5080217;27;45394;-47
2021/07/11 10:41:31;;;;;;;;;4.25;4.25;;;;;24.34;49.98;101105.22;5083960;27;46019;-49
2021/07/11 10:44:01;;;;;;;;;5.00;5.00;;;;;24.48;49.62;101099.66;5081728;27;45641;-51
2021/07/11 10:46:54;;;;;;;;;3.67;3.67;;;;;24.59;49.20;101104.28;5045208;28;46216;-49
2021/07/11 10:49:30;;;;;;;;;5.00;5.00;;;;;24.63;48.71;101111.19;5066725;27;45697;-50
2021/07/11 10:52:04;;;;;;;;;4.67;4.67;;;;;24.66;48.44;101102.84;5080495;27;45667;-51
2021/07/11 10:54:48;;;;;;;;;2.67;2.67;;;;;24.63;47.87;101101.22;5080684;27;45469;-52
2021/07/11 10:57:29;;;;;;;;;3.00;3.00;;;;;24.62;47.58;101104.03;5080324;27;47117;-47
2021/07/11 10:59:55;;;;;;;;;2.67;2.67;;;;;24.63;47.69;101100.34;5080779;27;45338;-48
2021/07/11 11:02:22;;;;;;;;;3.00;3.00;;;;;24.65;47.81;101098.41;5044178;28;45607;-50
2021/07/11 11:05:10;;;;;;;;;2.67;2.67;;;;;24.65;47.42;101096.56;5080137;27;45456;-48
2021/07/11 11:07:42;;;;;;;;;3.33;3.33;;;;;24.67;46.61;101101.88;5080198;27;45674;-52
2021/07/11 11:10:31;;;;;;;;;2.33;2.33;;;;;24.67;45.91;101101.88;5080048;27;45394;-48
2021/07/11 11:13:04;;;;;;;;;5.00;3.67;;;;;24.66;46.40;101094.72;5069154;27;45271;-53
2021/07/11 11:15:43;;;;;;;;;5.33;4.67;;;;;24.66;46.57;101094.72;5058560;28;45311;-52
2021/07/11 11:18:12;;;;;;;;;4.33;4.33;;;;;24.68;46.75;101087.31;5057254;28;45483;-46
2021/07/11 11:20:38;;;;;;;;;3.00;3.00;;;;;24.67;46.79;101092.88;5078812;28;45550;-51
2021/07/11 11:23:12;;;;;;;;;5.00;5.00;;;;;24.59;46.20;101088.00;5061387;28;45500;-48
2021/07/11 11:25:42;;;;;;;;;4.00;4.00;;;;;24.54;46.50;101085.63;5079936;27;45450;-49